Strona główna
METAR-TAF:

METAR-TAF

Lotnisko :

Lleida-Alguaire

Lleida, Hiszpania

Szerokość geograficzna: 41-43-40N, Długość geograficzna: 000-32-09E, wysokość: 350 m

Aktualna obserwacja pogody

Raport powstał 31 minut temu, godzina 10:30 UTC
Wiatr 7 kt od południowy zachód, zmienny między południowo-południowy wschód i zachód
Temperatura 25°C
Wilgotność 57%
Ciśnienie 1016 hPa
Widzialność 10 km lub więcej
Brak chmur poniżej 1500 m i brak chmur cumulonimbus

METAR: LEDA 181030Z 22007KT 160V280 CAVOK 25/16 Q1016

czas: 13:01 (11:01 UTC)


TAF: brakujący

Obserwacja i prognoza pogody dla ponad 4000 lotnisk (raport METAR i TAF).

Dostępne stacje oznaczono żółtymi i czerwonymi punktami na mapie.

Najedź kursorem aby zobaczyć nazwę stacji.

Kliknij aby zobaczyć obserwacje i prognozy pogody.

Aby zmienić mapę: kliknij na zielony przycisk z czarnym krzyżykiem, aby powiększyć; na zielony przycisk z myślnikiem, aby pomniejszyć; na zielone strzałki, aby przejść do map sąsiednich.


METAR-TAF: